createdAt,value
2018-08-07T00:00:49.247Z,26.9
2018-08-07T00:01:54.118Z,26.9
2018-08-07T00:02:59.603Z,26.9
2018-08-07T00:04:05.034Z,26.9
2018-08-07T00:05:10.226Z,26.9
2018-08-07T00:06:15.715Z,26.9
2018-08-07T00:07:21.223Z,26.9
2018-08-07T00:08:26.360Z,26.9
2018-08-07T00:09:31.913Z,26.9
2018-08-07T00:10:37.346Z,26.9
2018-08-07T00:11:42.777Z,26.9
2018-08-07T00:12:48.460Z,26.9
2018-08-07T00:13:52.861Z,26.9
2018-08-07T00:14:58.294Z,26.9
2018-08-07T00:16:03.419Z,26.9
2018-08-07T00:17:08.867Z,26.9
2018-08-07T00:18:13.456Z,26.9
2018-08-07T00:19:18.368Z,26.9
2018-08-07T00:20:23.055Z,26.9
2018-08-07T00:21:29.116Z,26.9
2018-08-07T00:22:33.754Z,26.9
2018-08-07T00:23:38.917Z,26.9
2018-08-07T00:24:44.535Z,26.9
2018-08-07T00:25:50.001Z,26.9
2018-08-07T00:26:54.866Z,26.9
2018-08-07T00:28:00.008Z,26.9
2018-08-07T00:29:05.212Z,26.9
2018-08-07T00:30:10.071Z,26.9
2018-08-07T00:31:15.397Z,26.9
2018-08-07T00:32:20.889Z,26.9
2018-08-07T00:33:26.062Z,26.9
2018-08-07T00:34:31.237Z,26.9
2018-08-07T00:35:35.616Z,26.9
2018-08-07T00:36:41.175Z,26.9
2018-08-07T00:37:46.616Z,26.9
2018-08-07T00:38:51.902Z,26.9
2018-08-07T00:39:57.384Z,26.9
2018-08-07T00:41:01.961Z,26.9
2018-08-07T00:42:06.829Z,26.9
2018-08-07T00:43:12.465Z,26.9
2018-08-07T00:44:17.339Z,26.9
2018-08-07T00:45:22.505Z,26.9
2018-08-07T00:46:27.308Z,26.9
2018-08-07T00:47:32.738Z,26.9
2018-08-07T00:48:38.253Z,26.9
2018-08-07T00:49:43.425Z,26.9
2018-08-07T00:50:48.905Z,26.9
2018-08-07T00:51:54.184Z,26.9
2018-08-07T00:52:59.673Z,26.9
2018-08-07T00:54:05.104Z,26.9
2018-08-07T00:55:10.814Z,26.9
2018-08-07T00:56:16.179Z,26.9
2018-08-07T00:57:21.633Z,26.9
2018-08-07T00:58:27.268Z,26.9
2018-08-07T00:59:32.704Z,26.9
2018-08-07T01:00:38.604Z,26.9
2018-08-07T01:01:43.827Z,26.9
2018-08-07T01:02:48.441Z,26.9
2018-08-07T01:03:53.981Z,26.9
2018-08-07T01:04:58.931Z,26.9
2018-08-07T01:06:03.834Z,26.9
2018-08-07T01:07:09.242Z,26.9
2018-08-07T01:08:14.389Z,26.9
2018-08-07T01:09:19.596Z,26.9
2018-08-07T01:10:25.877Z,26.9
2018-08-07T01:11:30.447Z,26.9
2018-08-07T01:12:36.141Z,26.9
2018-08-07T01:13:41.349Z,26.9
2018-08-07T01:14:46.520Z,26.9
2018-08-07T01:15:51.849Z,26.9
2018-08-07T01:16:57.091Z,26.9
2018-08-07T01:18:01.949Z,26.9
2018-08-07T01:19:07.225Z,26.9
2018-08-07T01:20:12.414Z,26.9
2018-08-07T01:21:17.846Z,26.9
2018-08-07T01:22:23.118Z,26.9
2018-08-07T01:23:28.040Z,26.9
2018-08-07T01:24:33.617Z,26.9
2018-08-07T01:25:38.484Z,26.9
2018-08-07T01:26:43.351Z,26.9
2018-08-07T01:27:49.173Z,26.9
2018-08-07T01:28:54.704Z,26.9
2018-08-07T01:29:59.561Z,26.9
2018-08-07T01:31:04.891Z,26.9
2018-08-07T01:32:09.832Z,26.9
2018-08-07T01:33:14.981Z,26.9
2018-08-07T01:34:20.897Z,26.9
2018-08-07T01:35:26.072Z,26.9
2018-08-07T01:36:31.790Z,26.9
2018-08-07T01:37:36.949Z,26.9
2018-08-07T01:38:42.486Z,26.9
2018-08-07T01:39:48.221Z,26.9
2018-08-07T01:40:52.852Z,26.9
2018-08-07T01:41:58.064Z,26.9
2018-08-07T01:43:03.281Z,26.9
2018-08-07T01:44:08.827Z,26.9
2018-08-07T01:45:14.289Z,26.9
2018-08-07T01:46:19.688Z,26.9
2018-08-07T01:47:24.647Z,26.9
2018-08-07T01:48:29.933Z,26.9
2018-08-07T01:49:35.081Z,26.9
2018-08-07T01:50:40.688Z,26.9
2018-08-07T01:51:46.438Z,26.9
2018-08-07T01:52:51.885Z,26.9
2018-08-07T01:53:57.046Z,26.9
2018-08-07T01:55:01.951Z,26.9
2018-08-07T01:56:05.696Z,26.9
2018-08-07T01:57:10.861Z,26.9
2018-08-07T01:58:16.303Z,26.9
2018-08-07T01:59:21.459Z,26.9
2018-08-07T02:00:27.257Z,26.9
2018-08-07T02:01:32.458Z,26.9
2018-08-07T02:02:37.626Z,26.9
2018-08-07T02:03:43.387Z,26.9
2018-08-07T02:04:48.544Z,26.9
2018-08-07T02:05:53.706Z,26.9
2018-08-07T02:06:58.823Z,26.9
2018-08-07T02:08:03.992Z,26.9
2018-08-07T02:09:09.151Z,26.9
2018-08-07T02:10:14.647Z,26.9
2018-08-07T02:11:20.081Z,26.9
2018-08-07T02:13:45.181Z,26.9
2018-08-07T02:14:50.054Z,26.9
2018-08-07T02:15:55.787Z,26.9
2018-08-07T02:17:01.016Z,26.9
2018-08-07T02:18:05.640Z,26.9
2018-08-07T02:19:10.305Z,26.9
2018-08-07T02:20:14.900Z,26.9
2018-08-07T02:21:20.361Z,26.9
2018-08-07T02:22:25.592Z,26.9
2018-08-07T02:23:30.795Z,26.9
2018-08-07T02:24:35.706Z,26.9
2018-08-07T02:25:40.858Z,26.9
2018-08-07T02:26:46.334Z,26.9
2018-08-07T02:27:52.017Z,26.9
2018-08-07T02:28:57.493Z,26.9
2018-08-07T02:30:02.270Z,26.9
2018-08-07T02:31:07.757Z,26.9
2018-08-07T02:32:12.921Z,26.9
2018-08-07T02:33:18.133Z,26.9
2018-08-07T02:34:23.651Z,26.9
2018-08-07T02:35:28.535Z,26.9
2018-08-07T02:36:34.093Z,26.9
2018-08-07T02:37:39.318Z,27
2018-08-07T02:38:44.526Z,26.9
2018-08-07T02:39:50.129Z,26.9
2018-08-07T02:40:55.381Z,26.9
2018-08-07T02:42:00.806Z,26.9
2018-08-07T02:43:05.258Z,26.9
2018-08-07T02:44:10.745Z,26.9
2018-08-07T02:45:15.613Z,26.9
2018-08-07T02:46:21.133Z,26.9
2018-08-07T02:47:26.394Z,26.9
2018-08-07T02:48:31.824Z,26.9
2018-08-07T02:49:36.786Z,26.9
2018-08-07T02:50:41.958Z,26.9
2018-08-07T02:51:47.739Z,26.9
2018-08-07T02:52:52.936Z,26.9
2018-08-07T02:53:58.128Z,26.9
2018-08-07T02:55:03.572Z,26.9
2018-08-07T02:56:08.731Z,27
2018-08-07T02:57:13.967Z,26.9
2018-08-07T02:58:19.463Z,26.9
2018-08-07T02:59:24.409Z,26.9
2018-08-07T03:00:29.957Z,26.9
2018-08-07T03:01:34.528Z,26.9
2018-08-07T03:02:39.736Z,26.9
2018-08-07T03:03:44.902Z,27
2018-08-07T03:04:50.049Z,27
2018-08-07T03:05:55.505Z,26.9
2018-08-07T03:07:01.186Z,26.9
2018-08-07T03:08:06.341Z,27
2018-08-07T03:09:11.556Z,27
2018-08-07T03:10:16.719Z,26.9
2018-08-07T03:11:22.151Z,27
2018-08-07T03:12:28.172Z,27
2018-08-07T03:13:33.596Z,26.9
2018-08-07T03:14:38.796Z,26.9
2018-08-07T03:15:44.227Z,26.9
2018-08-07T03:16:49.437Z,26.9
2018-08-07T03:17:54.314Z,26.9
2018-08-07T03:19:00.014Z,26.9
2018-08-07T03:20:05.184Z,26.9
2018-08-07T03:21:10.344Z,26.9
2018-08-07T03:22:15.591Z,26.9
2018-08-07T03:23:20.765Z,26.9
2018-08-07T03:24:26.650Z,26.9
2018-08-07T03:25:32.085Z,26.9
2018-08-07T03:26:37.562Z,26.9
2018-08-07T03:27:42.829Z,26.9
2018-08-07T03:28:47.697Z,26.9
2018-08-07T03:29:53.183Z,26.9
2018-08-07T03:30:58.633Z,26.9
2018-08-07T03:32:03.811Z,26.9
2018-08-07T03:33:08.989Z,26.9
2018-08-07T03:34:13.817Z,26.9
2018-08-07T03:35:19.296Z,26.9
2018-08-07T03:36:24.787Z,26.9
2018-08-07T03:37:44.861Z,26.9
2018-08-07T03:38:50.295Z,26.9
2018-08-07T03:39:55.409Z,26.9
2018-08-07T03:41:00.284Z,26.9
2018-08-07T03:42:05.179Z,26.9
2018-08-07T03:43:10.590Z,26.9
2018-08-07T03:44:15.833Z,26.9
2018-08-07T03:45:21.330Z,26.9
2018-08-07T03:46:41.803Z,26.9
2018-08-07T03:47:47.233Z,26.9
2018-08-07T03:48:52.727Z,26.9
2018-08-07T03:49:58.160Z,26.9
2018-08-07T03:51:03.311Z,26.9
2018-08-07T03:52:08.818Z,26.9
2018-08-07T03:53:14.268Z,26.9
2018-08-07T03:54:19.410Z,26.9
2018-08-07T03:55:24.953Z,26.9
2018-08-07T03:56:30.118Z,26.9
2018-08-07T03:57:35.547Z,26.9
2018-08-07T03:58:40.775Z,26.8
2018-08-07T03:59:46.211Z,26.8
2018-08-07T04:00:51.934Z,26.8
2018-08-07T04:01:56.817Z,26.8
2018-08-07T04:03:01.962Z,26.8
2018-08-07T04:04:06.964Z,26.7
2018-08-07T04:05:11.929Z,26.7
2018-08-07T04:06:16.791Z,26.7
2018-08-07T04:07:22.284Z,26.6
2018-08-07T04:08:27.709Z,26.6
2018-08-07T04:09:33.371Z,26.5
2018-08-07T04:10:38.806Z,26.5
2018-08-07T04:11:44.274Z,26.5
2018-08-07T04:12:49.420Z,26.4
2018-08-07T04:13:54.557Z,26.4
2018-08-07T04:14:59.703Z,26.4
2018-08-07T04:16:05.123Z,26.4
2018-08-07T04:17:09.434Z,26.4
2018-08-07T04:18:14.864Z,26.4
2018-08-07T04:19:20.288Z,26.3
2018-08-07T04:20:25.467Z,26.3
2018-08-07T04:21:31.014Z,26.2
2018-08-07T04:22:35.900Z,26.3
2018-08-07T04:23:40.816Z,26.2
2018-08-07T04:24:45.920Z,26.2
2018-08-07T04:25:51.069Z,26.2
2018-08-07T04:26:56.561Z,26.2
2018-08-07T04:28:02.409Z,26.2
2018-08-07T04:29:07.351Z,26.1
2018-08-07T04:30:12.785Z,26.1
2018-08-07T04:31:18.360Z,26.1
2018-08-07T04:32:23.600Z,26.1
2018-08-07T04:33:28.589Z,26.1
2018-08-07T04:34:33.466Z,26
2018-08-07T04:35:38.397Z,26
2018-08-07T04:36:44.081Z,26
2018-08-07T04:37:48.942Z,26
2018-08-07T04:38:54.094Z,25.9
2018-08-07T04:39:59.506Z,25.9
2018-08-07T04:41:04.372Z,25.9
2018-08-07T04:42:09.236Z,25.9
2018-08-07T04:43:14.637Z,25.9
2018-08-07T04:44:20.075Z,25.8
2018-08-07T04:46:44.706Z,25.8
2018-08-07T04:47:49.851Z,25.8
2018-08-07T04:48:54.879Z,25.8
2018-08-07T04:49:59.488Z,25.7
2018-08-07T04:51:04.393Z,25.7
2018-08-07T04:52:09.642Z,25.7
2018-08-07T04:53:15.121Z,25.7
2018-08-07T04:54:19.980Z,25.7
2018-08-07T04:55:25.380Z,25.7
2018-08-07T04:56:30.812Z,25.7
2018-08-07T04:57:36.118Z,25.6
2018-08-07T04:58:41.590Z,25.6
2018-08-07T04:59:46.451Z,25.6
2018-08-07T05:00:51.578Z,25.6
2018-08-07T05:01:56.468Z,25.5
2018-08-07T05:03:01.334Z,25.5
2018-08-07T05:04:06.179Z,25.5
2018-08-07T05:05:11.433Z,25.5
2018-08-07T05:06:16.924Z,25.5
2018-08-07T05:07:22.083Z,25.5
2018-08-07T05:08:26.972Z,25.5
2018-08-07T05:09:32.755Z,25.5
2018-08-07T05:10:38.224Z,25.4
2018-08-07T05:11:43.461Z,25.4
2018-08-07T05:12:48.951Z,25.4
2018-08-07T05:13:54.091Z,25.4
2018-08-07T05:14:59.243Z,25.4
2018-08-07T05:16:04.354Z,25.3
2018-08-07T05:17:09.277Z,25.3
2018-08-07T05:18:14.722Z,25.3
2018-08-07T05:19:20.397Z,25.3
2018-08-07T05:20:25.602Z,25.3
2018-08-07T05:21:30.923Z,25.3
2018-08-07T05:22:36.374Z,25.3
2018-08-07T05:23:41.974Z,25.3
2018-08-07T05:24:47.817Z,25.2
2018-08-07T05:25:53.079Z,25.2
2018-08-07T05:26:58.542Z,25.2
2018-08-07T05:28:04.256Z,25.2
2018-08-07T05:29:09.491Z,25.2
2018-08-07T05:30:14.638Z,25.2
2018-08-07T05:31:19.911Z,25.2
2018-08-07T05:32:25.077Z,25.1
2018-08-07T05:33:30.470Z,25.2
2018-08-07T05:34:35.662Z,25.1
2018-08-07T05:35:41.153Z,25.1
2018-08-07T05:36:46.875Z,25.1
2018-08-07T05:37:51.738Z,25.1
2018-08-07T05:38:56.880Z,25.1
2018-08-07T05:40:02.435Z,25.1
2018-08-07T05:41:07.615Z,25.1
2018-08-07T05:42:13.114Z,25
2018-08-07T05:43:18.033Z,25
2018-08-07T05:44:23.471Z,25
2018-08-07T05:45:28.616Z,25
2018-08-07T05:46:34.045Z,25
2018-08-07T05:47:39.257Z,25
2018-08-07T05:48:44.946Z,25
2018-08-07T05:49:49.804Z,25
2018-08-07T05:50:55.460Z,25
2018-08-07T05:52:06.230Z,25
2018-08-07T05:53:11.735Z,25
2018-08-07T05:54:16.888Z,24.9
2018-08-07T05:55:22.147Z,24.9
2018-08-07T05:56:27.056Z,24.9
2018-08-07T05:57:32.660Z,24.9
2018-08-07T05:58:37.837Z,24.9
2018-08-07T05:59:43.091Z,24.9
2018-08-07T06:00:48.781Z,24.9
2018-08-07T06:01:53.698Z,24.9
2018-08-07T06:02:59.166Z,24.9
2018-08-07T06:04:04.945Z,24.9
2018-08-07T06:05:09.882Z,24.9
2018-08-07T06:06:15.327Z,24.8
2018-08-07T06:07:21.041Z,24.8
2018-08-07T06:08:26.242Z,24.8
2018-08-07T06:09:32.259Z,24.8
2018-08-07T06:10:37.217Z,24.8
2018-08-07T06:11:42.799Z,24.8
2018-08-07T06:12:47.943Z,24.8
2018-08-07T06:13:53.110Z,24.7
2018-08-07T06:14:58.274Z,24.7
2018-08-07T06:16:03.695Z,24.7
2018-08-07T06:17:08.888Z,24.7
2018-08-07T06:18:13.476Z,24.7
2018-08-07T06:19:18.355Z,24.7
2018-08-07T06:20:23.558Z,24.7
2018-08-07T06:21:29.234Z,24.8
2018-08-07T06:22:34.377Z,24.7
2018-08-07T06:23:39.832Z,24.7
2018-08-07T06:24:45.234Z,24.7
2018-08-07T06:25:50.381Z,24.7
2018-08-07T06:26:55.851Z,24.7
2018-08-07T06:28:01.540Z,24.7
2018-08-07T06:29:06.711Z,24.7
2018-08-07T06:30:11.653Z,24.7
2018-08-07T06:31:17.101Z,24.7
2018-08-07T06:32:22.667Z,24.7
2018-08-07T06:33:28.685Z,24.7
2018-08-07T06:34:34.190Z,24.6
2018-08-07T06:35:38.775Z,24.6
2018-08-07T06:36:44.454Z,24.6
2018-08-07T06:37:49.699Z,24.6
2018-08-07T06:38:55.420Z,24.6
2018-08-07T06:40:00.822Z,24.6
2018-08-07T06:41:05.186Z,24.6
2018-08-07T06:42:10.615Z,24.6
2018-08-07T06:43:15.769Z,24.6
2018-08-07T06:44:21.277Z,24.6
2018-08-07T06:45:26.833Z,24.6
2018-08-07T06:46:31.981Z,24.6
2018-08-07T06:47:37.162Z,24.6
2018-08-07T06:48:42.917Z,24.6
2018-08-07T06:49:48.022Z,24.5
2018-08-07T06:50:53.188Z,24.5
2018-08-07T06:51:58.314Z,24.5
2018-08-07T06:53:03.740Z,24.5
2018-08-07T06:54:08.364Z,24.5
2018-08-07T06:55:14.127Z,24.5
2018-08-07T06:56:19.337Z,24.5
2018-08-07T06:57:25.065Z,24.5
2018-08-07T06:58:45.410Z,24.5
2018-08-07T06:59:50.024Z,24.5
2018-08-07T07:00:55.524Z,24.5
2018-08-07T07:02:01.034Z,24.5
2018-08-07T07:03:05.631Z,24.4
2018-08-07T07:04:11.138Z,24.4
2018-08-07T07:05:16.284Z,24.4
2018-08-07T07:06:21.471Z,24.4
2018-08-07T07:07:41.217Z,24.4
2018-08-07T07:08:46.643Z,24.4
2018-08-07T07:09:52.039Z,24.4
2018-08-07T07:10:57.802Z,24.4
2018-08-07T07:12:02.382Z,24.4
2018-08-07T07:13:07.709Z,24.4
2018-08-07T07:14:13.191Z,24.4
2018-08-07T07:15:18.621Z,24.4
2018-08-07T07:16:24.316Z,24.4
2018-08-07T07:17:29.498Z,24.4
2018-08-07T07:18:35.009Z,24.4
2018-08-07T07:19:40.474Z,24.4
2018-08-07T07:20:44.821Z,24.4
2018-08-07T07:21:50.536Z,24.4
2018-08-07T07:22:55.213Z,24.4
2018-08-07T07:24:00.647Z,24.4
2018-08-07T07:25:05.527Z,24.4
2018-08-07T07:26:10.394Z,24.4
2018-08-07T07:27:15.295Z,24.4
2018-08-07T07:28:20.755Z,24.4
2018-08-07T07:29:26.209Z,24.4
2018-08-07T07:30:31.741Z,24.4
2018-08-07T07:31:37.265Z,24.4
2018-08-07T07:32:42.408Z,24.4
2018-08-07T07:33:47.981Z,24.4
2018-08-07T07:34:52.626Z,24.4
2018-08-07T07:35:57.864Z,24.3
2018-08-07T07:37:03.271Z,24.3
2018-08-07T07:38:08.511Z,24.3
2018-08-07T07:39:13.957Z,24.3
2018-08-07T07:40:19.636Z,24.3
2018-08-07T07:41:24.269Z,24.3
2018-08-07T07:42:30.208Z,24.3
2018-08-07T07:43:35.354Z,24.3
2018-08-07T07:44:39.664Z,24.3
2018-08-07T07:45:44.845Z,24.3
2018-08-07T07:46:50.013Z,24.3
2018-08-07T07:47:54.652Z,24.3
2018-08-07T07:49:00.493Z,24.3
2018-08-07T07:50:05.495Z,24.3
2018-08-07T07:51:10.392Z,24.3
2018-08-07T07:52:16.123Z,24.3
2018-08-07T07:53:21.783Z,24.3
2018-08-07T07:54:27.260Z,24.3
2018-08-07T07:55:32.207Z,24.3
2018-08-07T07:56:37.657Z,24.3
2018-08-07T07:57:43.564Z,24.3
2018-08-07T07:58:48.713Z,24.3
2018-08-07T07:59:53.381Z,24.3
2018-08-07T08:00:58.593Z,24.3
2018-08-07T08:02:04.160Z,24.3
2018-08-07T08:03:09.132Z,24.2
2018-08-07T08:04:14.583Z,24.2
2018-08-07T08:05:19.982Z,24.2
2018-08-07T08:06:26.580Z,24.2
2018-08-07T08:07:31.785Z,24.2
2018-08-07T08:08:37.240Z,24.2
2018-08-07T08:09:42.946Z,24.2
2018-08-07T08:10:48.083Z,24.2
2018-08-07T08:11:53.334Z,24.2
2018-08-07T08:12:59.129Z,24.2
2018-08-07T08:14:04.568Z,24.2
2018-08-07T08:15:09.718Z,24.2
2018-08-07T08:16:15.557Z,24.2
2018-08-07T08:17:20.140Z,24.2
2018-08-07T08:18:25.930Z,24.2
2018-08-07T08:19:31.085Z,24.2
2018-08-07T08:20:36.520Z,24.2
2018-08-07T08:21:41.776Z,24.2
2018-08-07T08:22:47.209Z,24.2
2018-08-07T08:23:52.361Z,24.2
2018-08-07T08:24:58.368Z,24.2
2018-08-07T08:26:03.527Z,24.2
2018-08-07T08:27:09.082Z,24.2
2018-08-07T08:28:13.944Z,24.2
2018-08-07T08:29:18.922Z,24.2
2018-08-07T08:30:26.845Z,24.2
2018-08-07T08:31:31.227Z,24.2
2018-08-07T08:32:36.379Z,24.2
2018-08-07T08:33:42.109Z,24.2
2018-08-07T08:34:46.747Z,24.2
2018-08-07T08:35:51.679Z,24.2
2018-08-07T08:36:57.435Z,24.2
2018-08-07T08:38:02.658Z,24.2
2018-08-07T08:39:07.886Z,24.2
2018-08-07T08:40:13.299Z,24.2
2018-08-07T08:41:18.810Z,24.2
2018-08-07T08:42:23.693Z,24.2
2018-08-07T08:43:29.538Z,24.2
2018-08-07T08:44:34.481Z,24.2
2018-08-07T08:45:39.605Z,24.2
2018-08-07T08:46:45.127Z,24.2
2018-08-07T08:47:50.724Z,24.2
2018-08-07T08:48:56.155Z,24.2
2018-08-07T08:50:01.539Z,24.2
2018-08-07T08:51:06.055Z,24.2
2018-08-07T08:52:11.326Z,24.2
2018-08-07T08:53:16.206Z,24.2
2018-08-07T08:54:21.693Z,24.2
2018-08-07T08:55:26.520Z,24.2
2018-08-07T08:56:32.014Z,24.2
2018-08-07T08:57:37.698Z,24.2
2018-08-07T08:58:42.551Z,24.2
2018-08-07T08:59:47.425Z,24.2
2018-08-07T09:00:52.836Z,24.2
2018-08-07T09:01:57.790Z,24.2
2018-08-07T09:03:03.224Z,24.2
2018-08-07T09:04:09.010Z,24.2
2018-08-07T09:05:14.451Z,24.2
2018-08-07T09:06:20.116Z,24.2
2018-08-07T09:07:40.446Z,24.2
2018-08-07T09:08:46.122Z,24.2
2018-08-07T09:09:51.559Z,24.2
2018-08-07T09:10:56.906Z,24.2
2018-08-07T09:12:02.319Z,24.2
2018-08-07T09:13:07.643Z,24.2
2018-08-07T09:14:12.503Z,24.2
2018-08-07T09:15:17.445Z,24.2
2018-08-07T09:16:22.852Z,24.2
2018-08-07T09:17:28.285Z,24.2
2018-08-07T09:18:33.710Z,24.2
2018-08-07T09:19:39.299Z,24.2
2018-08-07T09:20:44.174Z,24.2
2018-08-07T09:21:49.128Z,24.2
2018-08-07T09:22:53.943Z,24.2
2018-08-07T09:23:59.373Z,24.2
2018-08-07T09:25:04.268Z,24.2
2018-08-07T09:26:09.940Z,24.2
2018-08-07T09:27:15.367Z,24.2
2018-08-07T09:28:21.224Z,24.2
2018-08-07T09:29:26.120Z,24.2
2018-08-07T09:30:31.054Z,24.2
2018-08-07T09:31:36.520Z,24.2
2018-08-07T09:32:41.960Z,24.2
2018-08-07T09:33:47.365Z,24.2
2018-08-07T09:34:52.253Z,24.2
2018-08-07T09:35:57.419Z,24.2
2018-08-07T09:37:03.121Z,24.2
2018-08-07T09:38:08.020Z,24.2
2018-08-07T09:39:13.390Z,24.2
2018-08-07T09:40:18.744Z,24.2
2018-08-07T09:41:23.302Z,24.2
2018-08-07T09:42:28.832Z,24.2
2018-08-07T09:43:34.028Z,24.2
2018-08-07T09:44:38.901Z,24.2
2018-08-07T09:45:44.408Z,24.2
2018-08-07T09:46:49.579Z,24.2
2018-08-07T09:47:54.718Z,24.2
2018-08-07T09:49:00.497Z,24.2
2018-08-07T09:50:05.160Z,24.2
2018-08-07T09:51:10.358Z,24.2
2018-08-07T09:52:15.624Z,24.2
2018-08-07T09:53:21.166Z,24.2
2018-08-07T09:54:27.036Z,24.2
2018-08-07T09:55:32.211Z,24.2
2018-08-07T09:56:37.650Z,24.2
2018-08-07T09:57:43.170Z,24.2
2018-08-07T09:58:48.632Z,24.2
2018-08-07T09:59:53.688Z,24.2
2018-08-07T10:00:59.444Z,24.2
2018-08-07T10:02:04.349Z,24.2
2018-08-07T10:03:09.221Z,24.2
2018-08-07T10:04:14.617Z,24.2
2018-08-07T10:05:20.296Z,24.2
2018-08-07T10:06:26.973Z,24.2
2018-08-07T10:07:32.452Z,24.2
2018-08-07T10:08:37.037Z,24.2
2018-08-07T10:09:42.160Z,24.2
2018-08-07T10:10:47.593Z,24.2
2018-08-07T10:11:53.025Z,24.2
2018-08-07T10:12:57.951Z,24.2
2018-08-07T10:14:03.505Z,24.2
2018-08-07T10:15:08.729Z,24.2
2018-08-07T10:16:14.178Z,24.3
2018-08-07T10:17:19.600Z,24.2
2018-08-07T10:19:45.423Z,24.2
2018-08-07T10:20:50.951Z,24.2
2018-08-07T10:21:56.349Z,24.2
2018-08-07T10:23:01.528Z,24.2
2018-08-07T10:24:06.806Z,24.2
2018-08-07T10:25:12.322Z,24.2
2018-08-07T10:26:17.542Z,24.3
2018-08-07T10:27:22.416Z,24.2
2018-08-07T10:28:28.547Z,24.2
2018-08-07T10:29:33.696Z,24.3
2018-08-07T10:30:39.248Z,24.3
2018-08-07T10:31:45.039Z,24.3
2018-08-07T10:32:49.973Z,24.3
2018-08-07T10:33:55.190Z,24.3
2018-08-07T10:35:00.364Z,24.3
2018-08-07T10:36:05.534Z,24.3
2018-08-07T10:37:10.397Z,24.3
2018-08-07T10:38:15.556Z,24.3
2018-08-07T10:39:20.994Z,24.3
2018-08-07T10:40:26.967Z,24.3
2018-08-07T10:41:31.853Z,24.3
2018-08-07T10:42:37.634Z,24.3
2018-08-07T10:43:43.264Z,24.3
2018-08-07T10:44:50.169Z,24.3
2018-08-07T10:45:55.085Z,24.3
2018-08-07T10:47:00.264Z,24.3
2018-08-07T10:48:04.890Z,24.3
2018-08-07T10:49:10.620Z,24.3
2018-08-07T10:50:15.799Z,24.3
2018-08-07T10:51:21.265Z,24.3
2018-08-07T10:52:27.131Z,24.4
2018-08-07T10:53:32.303Z,24.3
2018-08-07T10:54:37.984Z,24.4
2018-08-07T10:55:43.179Z,24.4
2018-08-07T10:56:47.796Z,24.4
2018-08-07T10:57:53.345Z,24.4
2018-08-07T10:58:58.825Z,24.4
2018-08-07T11:00:03.990Z,24.4
2018-08-07T11:01:09.210Z,24.4
2018-08-07T11:02:14.150Z,24.4
2018-08-07T11:03:19.579Z,24.4
2018-08-07T11:04:39.928Z,24.4
2018-08-07T11:05:45.207Z,24.4
2018-08-07T11:06:51.252Z,24.4
2018-08-07T11:07:56.680Z,24.4
2018-08-07T11:09:01.915Z,24.4
2018-08-07T11:10:06.638Z,24.4
2018-08-07T11:11:11.814Z,24.4
2018-08-07T11:12:16.445Z,24.4
2018-08-07T11:13:21.882Z,24.4
2018-08-07T11:14:26.859Z,24.4
2018-08-07T11:15:32.280Z,24.4
2018-08-07T11:16:38.048Z,24.4
2018-08-07T11:17:43.742Z,24.4
2018-08-07T11:18:49.433Z,24.4
2018-08-07T11:19:54.882Z,24.4
2018-08-07T11:21:00.311Z,24.4
2018-08-07T11:22:05.701Z,24.4
2018-08-07T11:23:10.016Z,24.4
2018-08-07T11:24:15.480Z,24.4
2018-08-07T11:25:21.232Z,24.4
2018-08-07T11:26:26.822Z,24.4
2018-08-07T11:27:31.652Z,24.3
2018-08-07T11:28:36.871Z,24.4
2018-08-07T11:29:42.303Z,24.4
2018-08-07T11:30:48.164Z,24.4
2018-08-07T11:31:53.829Z,24.4
2018-08-07T11:32:58.982Z,24.4
2018-08-07T11:34:04.673Z,24.4
2018-08-07T11:35:09.869Z,24.4
2018-08-07T11:36:14.722Z,24.4
2018-08-07T11:37:19.382Z,24.4
2018-08-07T11:38:24.285Z,24.3
2018-08-07T11:39:29.395Z,24.3
2018-08-07T11:40:34.864Z,24.3
2018-08-07T11:41:40.294Z,24.3
2018-08-07T11:42:45.706Z,24.4
2018-08-07T11:43:50.887Z,24.4
2018-08-07T11:44:56.326Z,24.3
2018-08-07T11:46:01.816Z,24.3
2018-08-07T11:47:07.305Z,24.4
2018-08-07T11:48:12.804Z,24.3
2018-08-07T11:49:18.893Z,24.4
2018-08-07T11:50:24.641Z,24.3
2018-08-07T11:51:30.255Z,24.3
2018-08-07T11:52:35.397Z,24.3
2018-08-07T11:53:40.539Z,24.3
2018-08-07T11:54:46.098Z,24.3
2018-08-07T11:55:51.248Z,24.4
2018-08-07T11:56:56.701Z,24.3
2018-08-07T11:58:01.953Z,24.3
2018-08-07T11:59:07.177Z,24.3
2018-08-07T12:00:12.612Z,24.3
2018-08-07T12:01:18.438Z,24.3
2018-08-07T12:02:23.921Z,24.3
2018-08-07T12:03:29.587Z,24.3
2018-08-07T12:04:35.014Z,24.3
2018-08-07T12:05:40.203Z,24.3
2018-08-07T12:06:45.882Z,24.3
2018-08-07T12:07:51.041Z,24.3
2018-08-07T12:08:56.236Z,24.3
2018-08-07T12:10:01.381Z,24.3
2018-08-07T12:11:05.683Z,24.3
2018-08-07T12:12:10.835Z,24.3
2018-08-07T12:13:16.095Z,24.3
2018-08-07T12:14:21.026Z,24.3
2018-08-07T12:15:26.292Z,24.3
2018-08-07T12:16:31.524Z,24.3
2018-08-07T12:17:36.726Z,24.3
2018-08-07T12:18:41.868Z,24.3
2018-08-07T12:19:47.413Z,24.3
2018-08-07T12:20:52.268Z,24.3
2018-08-07T12:21:56.995Z,24.3
2018-08-07T12:23:01.610Z,24.3
2018-08-07T12:24:06.510Z,24.3
2018-08-07T12:25:11.628Z,24.3
2018-08-07T12:26:16.784Z,24.3
2018-08-07T12:27:21.395Z,24.3
2018-08-07T12:28:41.445Z,24.3
2018-08-07T12:29:46.921Z,24.3
2018-08-07T12:30:52.327Z,24.3
2018-08-07T12:31:57.467Z,24.3
2018-08-07T12:33:02.640Z,24.3
2018-08-07T12:34:07.986Z,24.3
2018-08-07T12:35:13.068Z,24.3
2018-08-07T12:36:18.877Z,24.3
2018-08-07T12:37:24.141Z,24.3
2018-08-07T12:38:29.296Z,24.3
2018-08-07T12:39:35.009Z,24.3
2018-08-07T12:40:40.478Z,24.3
2018-08-07T12:41:45.616Z,24.3
2018-08-07T12:42:51.049Z,24.3
2018-08-07T12:43:56.201Z,24.3
2018-08-07T12:45:01.365Z,24.3
2018-08-07T12:46:06.788Z,24.3
2018-08-07T12:47:11.658Z,24.3
2018-08-07T12:48:16.814Z,24.3
2018-08-07T12:49:22.065Z,24.3
2018-08-07T12:50:26.650Z,24.3
2018-08-07T12:51:32.696Z,24.2
2018-08-07T12:52:37.649Z,24.3
2018-08-07T12:53:43.078Z,24.3
2018-08-07T12:54:48.756Z,24.3
2018-08-07T12:55:54.221Z,24.3
2018-08-07T12:56:59.655Z,24.3
2018-08-07T12:58:05.304Z,24.3
2018-08-07T12:59:10.757Z,24.3
2018-08-07T13:00:15.913Z,24.3
2018-08-07T13:01:21.755Z,24.3
2018-08-07T13:02:27.371Z,24.3
2018-08-07T13:03:32.771Z,24.3
2018-08-07T13:04:37.451Z,24.3
2018-08-07T13:05:42.897Z,24.2
2018-08-07T13:06:48.652Z,24.3
2018-08-07T13:07:54.446Z,24.3
2018-08-07T13:08:59.323Z,24.3
2018-08-07T13:10:04.445Z,24.3
2018-08-07T13:11:09.706Z,24.2
2018-08-07T13:12:15.211Z,24.2
2018-08-07T13:13:20.229Z,24.3
2018-08-07T13:14:25.469Z,24.2
2018-08-07T13:15:30.926Z,24.2
2018-08-07T13:16:36.377Z,24.3
2018-08-07T13:17:41.811Z,24.3
2018-08-07T13:18:47.366Z,24.3
2018-08-07T13:19:51.731Z,24.3
2018-08-07T13:20:56.910Z,24.2
2018-08-07T13:22:02.582Z,24.3
2018-08-07T13:23:07.895Z,24.3
2018-08-07T13:24:13.091Z,24.3
2018-08-07T13:25:18.246Z,24.3
2018-08-07T13:26:23.528Z,24.3
2018-08-07T13:27:29.224Z,24.2
2018-08-07T13:28:34.414Z,24.3
2018-08-07T13:29:39.645Z,24.3
2018-08-07T13:30:45.357Z,24.3
2018-08-07T13:31:50.843Z,24.3
2018-08-07T13:32:55.146Z,24.3
2018-08-07T13:34:00.330Z,24.3
2018-08-07T13:35:05.205Z,24.3
2018-08-07T13:36:10.359Z,24.2
2018-08-07T13:37:15.628Z,24.2
2018-08-07T13:38:20.692Z,24.2
2018-08-07T13:39:26.248Z,24.3
2018-08-07T13:40:31.343Z,24.3
2018-08-07T13:41:36.767Z,24.2
2018-08-07T13:42:42.484Z,24.2
2018-08-07T13:43:47.965Z,24.2
2018-08-07T13:44:52.827Z,24.2
2018-08-07T13:45:57.777Z,24.2
2018-08-07T13:47:02.504Z,24.3
2018-08-07T13:48:07.401Z,24.3
2018-08-07T13:49:12.646Z,24.3
2018-08-07T13:50:18.415Z,24.2
2018-08-07T13:51:23.440Z,24.2
2018-08-07T13:52:43.244Z,24.2
2018-08-07T13:53:48.118Z,24.2
2018-08-07T13:54:53.642Z,24.2
2018-08-07T13:55:58.561Z,24.2
2018-08-07T13:57:04.016Z,24.2
2018-08-07T13:58:09.859Z,24.2
2018-08-07T13:59:15.332Z,24.2
2018-08-07T14:00:20.760Z,24.2
2018-08-07T14:01:40.758Z,24.2
2018-08-07T14:02:45.623Z,24.2
2018-08-07T14:03:50.836Z,24.2
2018-08-07T14:04:56.066Z,24.2
2018-08-07T14:06:00.940Z,24.2
2018-08-07T14:07:06.152Z,24.2
2018-08-07T14:08:10.728Z,24.2
2018-08-07T14:09:16.343Z,24.2
2018-08-07T14:10:22.173Z,24.2
2018-08-07T14:11:27.601Z,24.2
2018-08-07T14:12:32.711Z,24.2
2018-08-07T14:13:38.416Z,24.2
2018-08-07T14:14:44.181Z,24.2
2018-08-07T14:15:50.213Z,24.2
2018-08-07T14:16:55.353Z,24.2
2018-08-07T14:18:00.843Z,24.2
2018-08-07T14:19:05.154Z,24.2
2018-08-07T14:20:10.375Z,24.2
2018-08-07T14:21:15.614Z,24.2
2018-08-07T14:22:20.748Z,24.2
2018-08-07T14:23:26.020Z,24.2
2018-08-07T14:24:31.308Z,24.2
2018-08-07T14:25:36.777Z,24.2
2018-08-07T14:26:42.208Z,24.1
2018-08-07T14:27:47.328Z,24.1
2018-08-07T14:28:52.639Z,24.1
2018-08-07T14:29:58.028Z,24.1
2018-08-07T14:31:02.855Z,24.1
2018-08-07T14:32:07.820Z,24.1
2018-08-07T14:33:13.050Z,24.1
2018-08-07T14:34:18.041Z,24.1
2018-08-07T14:35:23.739Z,24.1
2018-08-07T14:36:29.504Z,24.1
2018-08-07T14:37:34.846Z,24.1